Date,TemperatureHighF,TemperatureAvgF,TemperatureLowF,DewpointHighF,DewpointAvgF,DewpointLowF,HumidityHigh,HumidityAvg,HumidityLow,PressureMaxIn,PressureMinIn,WindSpeedMaxMPH,WindSpeedAvgMPH,GustSpeedMaxMPH,PrecipitationSumIn
2013-5-1,75.3,62.6,49.9,62.3,55.0,47.4,93,77,61,30.20,30.03,11,4,13,0.00
2013-5-2,76.2,60.8,49.1,58.4,51.7,46.4,93,74,51,30.22,30.10,14,5,17,0.00
2013-5-3,73.5,62.3,53.0,59.6,51.8,45.9,90,70,47,30.10,30.01,17,6,18,0.00
2013-5-4,63.7,60.0,55.9,52.8,48.1,44.3,77,65,55,30.08,30.02,20,8,25,0.00
2013-5-5,65.7,59.7,52.7,50.6,48.0,44.6,84,66,49,30.07,29.98,18,9,22,0.00
2013-5-6,62.3,57.3,47.2,51.2,47.5,42.6,87,70,60,30.03,29.96,12,6,15,0.00
2013-5-7,65.4,57.9,46.5,56.7,50.8,42.3,91,78,69,30.03,29.96,12,5,16,0.00
2013-5-8,71.8,62.7,52.7,58.3,52.2,46.0,87,69,53,29.99,29.91,7,3,9,0.00
2013-5-9,76.7,65.6,48.8,61.2,53.7,46.0,92,67,46,29.95,29.86,7,3,10,0.00
2013-5-10,73.5,65.9,56.7,64.3,58.6,51.6,92,78,62,29.90,29.69,16,9,21,0.10
2013-5-11,61.6,48.4,38.6,49.2,42.5,32.3,88,80,59,29.92,29.75,22,8,26,0.04
2013-5-12,51.3,42.8,35.9,33.6,30.2,25.1,84,63,42,30.10,29.90,20,12,27,0.01
2013-5-13,56.8,44.2,29.3,31.4,24.7,18.6,84,51,24,30.18,30.09,12,6,15,0.00
2013-5-14,81.3,60.7,43.9,56.2,42.8,29.8,72,53,37,30.11,29.68,18,8,21,0.00
2013-5-15,87.3,76.1,62.3,60.3,52.2,41.3,81,48,21,29.74,29.58,20,11,24,0.00
2013-5-16,83.6,69.6,53.6,54.9,45.5,35.6,69,45,22,29.96,29.73,15,5,16,0.00
2013-5-17,63.7,57.9,49.2,51.1,46.3,39.0,78,65,55,30.11,29.96,15,10,18,0.00
2013-5-18,65.0,59.9,55.4,53.9,50.4,47.5,82,71,61,30.12,30.01,13,8,15,0.00
2013-5-19,78.4,67.0,53.6,67.0,59.4,49.5,89,77,65,30.01,29.87,8,4,13,0.00
2013-5-20,91.9,77.6,61.0,71.5,64.8,56.9,91,67,41,29.90,29.75,17,7,25,0.00
2013-5-21,88.9,79.2,72.6,67.4,63.0,58.3,79,60,38,29.79,29.67,17,9,22,0.00
2013-5-22,83.3,72.6,63.9,66.3,62.2,58.7,89,71,46,29.72,29.60,19,9,30,0.02
2013-5-23,70.2,57.4,44.1,60.9,52.5,39.6,92,84,66,30.12,29.67,19,9,23,0.06
2013-5-24,58.2,47.8,41.4,41.4,37.9,35.0,91,70,46,30.33,30.12,13,6,17,0.03
2013-5-25,65.2,51.7,37.1,44.5,39.1,34.2,91,65,34,30.40,30.24,12,3,16,0.00
2013-5-26,68.3,55.8,37.1,42.8,37.5,32.9,87,53,28,30.34,30.20,7,3,10,0.00
2013-5-27,59.0,55.3,52.3,53.7,45.8,37.6,92,72,48,30.24,29.97,11,4,13,0.61
2013-5-28,79.5,67.0,55.9,71.1,62.0,52.4,94,85,72,29.97,29.80,18,6,21,0.44
2013-5-29,84.8,76.4,69.4,71.2,65.4,62.2,83,69,55,29.96,29.80,19,10,30,0.00
2013-5-30,89.0,76.3,67.9,71.2,66.1,61.3,90,72,47,30.03,29.91,17,6,21,0.12
2013-5-31,82.5,74.3,67.4,70.4,66.7,64.6,92,78,59,29.97,29.84,18,8,26,0.00